Time;durP1;ratioP1;P1;durP2;ratioP2;P2;SDS_P1;SDS_P2;PMS_P1;PMS_P2;Temp;Humidity;BMP_temperature;BMP_pressure;BME280_temperature;BME280_humidity;BME280_pressure;Samples;Min_cycle;Max_cycle;Signal;HPM_P1;HPM_P2
2022/05/30 00:00:12;;;;;;;7.03;2.70;;;;;;;;;;5054785;28;20365;-67
2022/05/30 00:02:38;;;;;;;6.97;2.55;;;;;;;;;;5067029;28;20021;-66
2022/05/30 00:05:04;;;;;;;7.65;2.92;;;;;;;;;;5055985;28;20033;-69
2022/05/30 00:07:30;;;;;;;4.95;2.85;;;;;;;;;;5068072;28;20374;-70
2022/05/30 00:09:55;;;;;;;4.00;2.33;;;;;;;;;;5053135;28;20024;-69
2022/05/30 00:12:21;;;;;;;4.30;2.60;;;;;;;;;;5052978;28;20037;-69
2022/05/30 00:14:47;;;;;;;5.30;2.55;;;;;;;;;;5053075;28;20027;-68
2022/05/30 00:17:13;;;;;;;5.30;2.50;;;;;;;;;;5052454;28;20430;-67
2022/05/30 00:19:39;;;;;;;6.10;2.60;;;;;;;;;;5052793;28;20469;-67
2022/05/30 00:22:06;;;;;;;4.63;2.88;;;;;;;;;;5051868;28;20124;-67
2022/05/30 00:24:32;;;;;;;5.57;2.50;;;;;;;;;;5052796;28;20044;-67
2022/05/30 00:26:58;;;;;;;6.68;2.45;;;;;;;;;;5053004;28;20438;-67
2022/05/30 00:29:25;;;;;;;3.92;2.40;;;;;;;;;;5052843;28;20059;-67
2022/05/30 00:31:51;;;;;;;3.58;2.30;;;;;;;;;;5052480;28;20025;-66
2022/05/30 00:34:20;;;;;;;9.05;2.78;;;;;;;;;;5052629;28;20040;-66
2022/05/30 00:36:45;;;;;;;4.90;3.20;;;;;;;;;;5052605;28;20417;-67
2022/05/30 00:39:11;;;;;;;5.95;2.95;;;;;;;;;;5052516;28;20151;-67
2022/05/30 00:41:36;;;;;;;6.13;3.03;;;;;;;;;;5052568;28;20052;-67
2022/05/30 00:44:02;;;;;;;6.25;3.03;;;;;;;;;;5052476;28;20470;-67
2022/05/30 00:46:27;;;;;;;5.43;2.97;;;;;;;;;;5052426;28;20079;-65
2022/05/30 00:49:08;;;;;;;7.18;2.88;;;;;;;;;;5052750;28;20036;-67
2022/05/30 00:51:44;;;;;;;6.43;3.20;;;;;;;;;;5052553;28;20033;-65
2022/05/30 00:54:14;;;;;;;4.35;2.65;;;;;;;;;;5052509;28;20043;-65
2022/05/30 00:56:42;;;;;;;5.70;3.17;;;;;;;;;;5052570;28;20091;-66
2022/05/30 00:59:09;;;;;;;4.50;2.50;;;;;;;;;;5052626;28;20025;-66
2022/05/30 01:01:35;;;;;;;7.47;3.35;;;;;;;;;;5052169;28;20108;-66
2022/05/30 01:06:51;;;;;;;4.22;2.80;;;;;;;;;;5052447;28;20040;-65
2022/05/30 01:09:30;;;;;;;6.20;2.90;;;;;;;;;;5052494;28;20113;-68
2022/05/30 01:12:01;;;;;;;4.55;2.55;;;;;;;;;;5046400;28;20025;-67
2022/05/30 01:14:30;;;;;;;5.10;2.90;;;;;;;;;;5051359;28;20029;-67
2022/05/30 01:16:56;;;;;;;5.78;2.90;;;;;;;;;;5051638;28;20416;-67
2022/05/30 01:19:36;;;;;;;3.55;2.60;;;;;;;;;;5049048;28;20180;-68
2022/05/30 01:22:17;;;;;;;;;;;;;;;;;;5049636;28;20041;-66
2022/05/30 01:24:43;;;;;;;6.07;2.75;;;;;;;;;;5050726;28;20035;-67
2022/05/30 01:27:43;;;;;;;5.20;3.05;;;;;;;;;;5051658;28;20100;-68
2022/05/30 01:30:12;;;;;;;4.30;2.78;;;;;;;;;;5051409;28;20017;-67
2022/05/30 01:32:38;;;;;;;5.75;2.55;;;;;;;;;;5051682;28;20450;-67
2022/05/30 01:35:04;;;;;;;5.63;2.88;;;;;;;;;;5055009;28;20040;-67
2022/05/30 01:37:30;;;;;;;5.82;2.95;;;;;;;;;;5055485;28;20025;-67
2022/05/30 01:39:55;;;;;;;7.03;2.67;;;;;;;;;;5063964;28;20021;-65
2022/05/30 01:42:21;;;;;;;7.78;3.10;;;;;;;;;;5075774;28;20388;-65
2022/05/30 01:44:46;;;;;;;6.15;3.17;;;;;;;;;;5075547;28;20035;-67
2022/05/30 01:47:12;;;;;;;5.80;3.30;;;;;;;;;;5075674;28;20103;-68
2022/05/30 01:49:37;;;;;;;6.07;3.30;;;;;;;;;;5075648;28;20056;-68
2022/05/30 01:52:03;;;;;;;6.30;3.08;;;;;;;;;;5075630;28;20503;-68
2022/05/30 01:54:30;;;;;;;5.75;3.10;;;;;;;;;;5075585;28;20470;-68
2022/05/30 01:56:55;;;;;;;5.95;3.55;;;;;;;;;;5075532;28;20103;-65
2022/05/30 01:59:21;;;;;;;4.57;3.13;;;;;;;;;;5075318;28;20063;-67
2022/05/30 02:01:46;;;;;;;6.93;3.30;;;;;;;;;;5075348;28;20056;-68
2022/05/30 02:04:14;;;;;;;7.45;3.20;;;;;;;;;;5075304;28;20032;-68
2022/05/30 02:06:39;;;;;;;6.07;3.60;;;;;;;;;;5075307;28;20035;-68
2022/05/30 02:09:05;;;;;;;6.75;3.20;;;;;;;;;;5075238;28;20021;-68
2022/05/30 02:11:31;;;;;;;7.82;3.30;;;;;;;;;;5075391;28;20025;-68
2022/05/30 02:13:57;;;;;;;4.65;3.38;;;;;;;;;;5075069;28;20630;-66
2022/05/30 02:19:06;;;;;;;5.28;3.20;;;;;;;;;;5058468;28;20032;-67
2022/05/30 02:21:35;;;;;;;4.65;2.88;;;;;;;;;;5054846;28;20033;-66
2022/05/30 02:24:05;;;;;;;5.00;3.50;;;;;;;;;;5054983;28;20025;-68
2022/05/30 02:26:30;;;;;;;6.32;3.28;;;;;;;;;;5055017;28;20059;-68
2022/05/30 02:28:56;;;;;;;5.15;3.05;;;;;;;;;;5054804;28;20060;-67
2022/05/30 02:31:21;;;;;;;6.53;2.90;;;;;;;;;;5054862;28;20040;-68
2022/05/30 02:36:40;;;;;;;8.32;3.90;;;;;;;;;;5055088;28;20035;-68
2022/05/30 02:39:08;;;;;;;5.95;3.17;;;;;;;;;;5054777;28;20021;-67
2022/05/30 02:41:34;;;;;;;7.95;3.45;;;;;;;;;;5054679;28;20147;-68
2022/05/30 02:44:00;;;;;;;5.25;2.97;;;;;;;;;;5054442;28;20355;-68
2022/05/30 02:46:25;;;;;;;6.63;3.17;;;;;;;;;;5053832;28;20100;-69
2022/05/30 02:48:51;;;;;;;4.95;3.00;;;;;;;;;;5054655;28;20025;-69
2022/05/30 02:51:17;;;;;;;5.53;3.03;;;;;;;;;;5054404;28;20025;-67
2022/05/30 02:53:42;;;;;;;6.18;2.83;;;;;;;;;;5054412;28;20029;-67
2022/05/30 02:56:11;;;;;;;6.32;2.90;;;;;;;;;;5054566;28;20041;-69
2022/05/30 02:58:37;;;;;;;6.60;3.17;;;;;;;;;;5054219;28;20495;-69
2022/05/30 03:01:03;;;;;;;6.13;3.20;;;;;;;;;;5054489;28;20025;-68
2022/05/30 03:03:28;;;;;;;9.13;4.32;;;;;;;;;;5054314;28;20056;-67
2022/05/30 03:05:54;;;;;;;6.60;3.00;;;;;;;;;;5054306;28;20029;-68
2022/05/30 03:08:20;;;;;;;4.88;2.63;;;;;;;;;;5054342;28;20393;-68
2022/05/30 03:10:46;;;;;;;5.63;3.03;;;;;;;;;;5054328;28;20026;-67
2022/05/30 03:13:11;;;;;;;5.88;2.88;;;;;;;;;;5053934;28;20111;-68
2022/05/30 03:15:37;;;;;;;6.22;3.00;;;;;;;;;;5052847;28;20497;-68
2022/05/30 03:18:03;;;;;;;5.78;2.88;;;;;;;;;;5053851;28;20058;-68
2022/05/30 03:20:28;;;;;;;7.20;2.97;;;;;;;;;;5053997;28;20032;-68
2022/05/30 03:22:54;;;;;;;5.97;3.10;;;;;;;;;;5053864;28;20106;-68
2022/05/30 03:25:19;;;;;;;5.45;3.13;;;;;;;;;;5053868;28;20069;-69
2022/05/30 03:27:45;;;;;;;4.75;2.88;;;;;;;;;;5053767;28;20059;-68
2022/05/30 03:30:12;;;;;;;5.78;3.42;;;;;;;;;;5053948;28;20021;-66
2022/05/30 03:32:38;;;;;;;9.88;3.05;;;;;;;;;;5053752;28;20075;-68
2022/05/30 03:35:04;;;;;;;5.53;3.00;;;;;;;;;;5053802;28;20457;-69
2022/05/30 03:37:30;;;;;;;6.13;3.13;;;;;;;;;;5035963;28;20374;-68
2022/05/30 03:39:56;;;;;;;4.75;2.80;;;;;;;;;;5053644;28;20032;-68
2022/05/30 03:42:22;;;;;;;6.72;3.60;;;;;;;;;;5053153;28;20028;-68
2022/05/30 03:44:47;;;;;;;6.10;3.00;;;;;;;;;;5053550;28;20393;-68
2022/05/30 03:47:13;;;;;;;8.63;3.20;;;;;;;;;;5053431;28;20029;-68
2022/05/30 03:49:39;;;;;;;5.72;2.75;;;;;;;;;;5053344;28;20021;-68
2022/05/30 03:52:05;;;;;;;4.85;2.90;;;;;;;;;;5053477;28;20098;-68
2022/05/30 03:54:31;;;;;;;6.97;3.00;;;;;;;;;;5053383;28;20055;-68
2022/05/30 03:56:56;;;;;;;4.93;2.90;;;;;;;;;;5052866;28;20028;-68
2022/05/30 03:59:22;;;;;;;7.32;3.20;;;;;;;;;;5053125;28;20032;-68
2022/05/30 04:01:47;;;;;;;7.00;3.42;;;;;;;;;;5053153;28;20398;-68
2022/05/30 04:04:13;;;;;;;7.28;3.03;;;;;;;;;;5053133;28;20458;-68
2022/05/30 04:06:39;;;;;;;4.43;2.78;;;;;;;;;;5053453;28;20029;-68
2022/05/30 04:09:05;;;;;;;4.53;3.00;;;;;;;;;;5053128;28;20028;-68
2022/05/30 04:11:31;;;;;;;6.82;3.10;;;;;;;;;;5052855;28;20029;-69
2022/05/30 04:13:56;;;;;;;7.10;2.90;;;;;;;;;;5053082;28;20138;-68
2022/05/30 04:16:22;;;;;;;6.05;2.78;;;;;;;;;;5052916;28;20029;-68
2022/05/30 04:18:48;;;;;;;7.30;3.25;;;;;;;;;;5052687;28;20029;-68
2022/05/30 04:21:13;;;;;;;4.72;2.60;;;;;;;;;;5052544;28;20024;-67
2022/05/30 04:23:42;;;;;;;3.95;3.00;;;;;;;;;;5052794;28;20068;-67
2022/05/30 04:26:11;;;;;;;9.18;3.38;;;;;;;;;;5053000;28;20051;-67
2022/05/30 04:28:36;;;;;;;4.57;2.63;;;;;;;;;;5052767;28;20040;-68
2022/05/30 04:31:06;;;;;;;11.50;3.22;;;;;;;;;;5052670;28;20026;-69
2022/05/30 04:33:33;;;;;;;7.03;2.97;;;;;;;;;;5052796;28;20086;-68
2022/05/30 04:36:02;;;;;;;4.40;2.40;;;;;;;;;;5052836;28;20068;-68
2022/05/30 04:38:28;;;;;;;6.28;2.65;;;;;;;;;;5052471;28;20474;-69
2022/05/30 04:40:54;;;;;;;4.72;2.80;;;;;;;;;;5052534;28;20021;-68
2022/05/30 04:43:20;;;;;;;7.97;2.90;;;;;;;;;;5052592;28;20394;-68
2022/05/30 04:45:46;;;;;;;4.70;2.60;;;;;;;;;;5052462;28;20033;-68
2022/05/30 04:48:11;;;;;;;4.50;3.38;;;;;;;;;;5052508;28;20713;-68
2022/05/30 04:50:37;;;;;;;5.78;3.05;;;;;;;;;;5052402;28;20021;-66
2022/05/30 04:53:02;;;;;;;5.93;3.00;;;;;;;;;;5052322;28;20021;-68
2022/05/30 04:55:28;;;;;;;5.57;3.15;;;;;;;;;;5052571;28;20036;-68
2022/05/30 04:57:53;;;;;;;4.75;2.88;;;;;;;;;;5052437;28;20040;-68
2022/05/30 05:00:24;;;;;;;6.28;2.90;;;;;;;;;;5052479;28;20360;-68
2022/05/30 05:02:51;;;;;;;;;;;;;;;;;;5052938;28;20027;-68
2022/05/30 05:05:17;;;;;;;6.25;3.40;;;;;;;;;;5052343;28;19913;-68
2022/05/30 05:08:07;;;;;;;3.80;2.63;;;;;;;;;;5052121;28;20366;-68
2022/05/30 05:10:35;;;;;;;;;;;;;;;;;;5056667;28;20029;-68
2022/05/30 05:13:00;;;;;;;6.43;2.90;;;;;;;;;;5056571;28;19960;-68
2022/05/30 05:15:26;;;;;;;6.25;2.97;;;;;;;;;;5056530;28;20126;-68
2022/05/30 05:17:51;;;;;;;4.95;2.83;;;;;;;;;;5056234;28;20047;-65
2022/05/30 05:20:17;;;;;;;5.70;3.20;;;;;;;;;;5056022;28;20035;-68
2022/05/30 05:22:42;;;;;;;4.10;2.70;;;;;;;;;;5055823;28;20037;-66
2022/05/30 05:25:08;;;;;;;6.10;3.10;;;;;;;;;;5056212;28;20041;-66
2022/05/30 05:27:34;;;;;;;5.32;2.90;;;;;;;;;;5056106;28;20028;-67
2022/05/30 05:29:59;;;;;;;12.30;4.15;;;;;;;;;;5056106;28;20025;-67
2022/05/30 05:32:25;;;;;;;8.27;2.88;;;;;;;;;;5055921;28;20108;-66
2022/05/30 05:34:50;;;;;;;4.82;2.95;;;;;;;;;;5055978;28;20033;-66
2022/05/30 05:37:19;;;;;;;4.95;2.72;;;;;;;;;;5055697;28;20059;-66
2022/05/30 05:39:47;;;;;;;5.63;2.80;;;;;;;;;;5055892;28;20040;-67
2022/05/30 05:42:13;;;;;;;9.73;3.13;;;;;;;;;;5055948;28;20044;-67
2022/05/30 05:44:40;;;;;;;4.75;2.97;;;;;;;;;;5055742;28;20462;-68
2022/05/30 05:47:06;;;;;;;5.65;3.13;;;;;;;;;;5055883;28;20021;-66
2022/05/30 05:49:31;;;;;;;7.40;3.60;;;;;;;;;;5055500;28;20070;-66
2022/05/30 05:51:57;;;;;;;5.80;3.45;;;;;;;;;;5055414;28;20060;-67
2022/05/30 05:54:23;;;;;;;6.00;2.80;;;;;;;;;;5055603;28;20029;-66
2022/05/30 05:56:49;;;;;;;9.45;3.10;;;;;;;;;;5055646;28;20021;-65
2022/05/30 05:59:16;;;;;;;7.38;3.40;;;;;;;;;;5055660;28;20048;-68
2022/05/30 06:01:41;;;;;;;5.38;3.03;;;;;;;;;;5055477;28;20378;-68
2022/05/30 06:04:09;;;;;;;8.27;3.30;;;;;;;;;;5055551;28;20032;-68
2022/05/30 06:06:35;;;;;;;5.35;3.05;;;;;;;;;;5055041;28;20104;-68
2022/05/30 06:09:03;;;;;;;3.88;2.70;;;;;;;;;;5055508;28;20418;-67
2022/05/30 06:11:31;;;;;;;4.97;2.90;;;;;;;;;;5055404;28;20347;-68
2022/05/30 06:13:57;;;;;;;6.53;2.72;;;;;;;;;;5054948;28;20331;-68
2022/05/30 06:16:28;;;;;;;5.90;2.95;;;;;;;;;;5055164;28;20171;-68
2022/05/30 06:18:57;;;;;;;3.85;2.63;;;;;;;;;;5054776;28;20029;-68
2022/05/30 06:21:24;;;;;;;4.65;2.33;;;;;;;;;;5053340;28;20098;-68
2022/05/30 06:23:51;;;;;;;5.45;2.28;;;;;;;;;;5055252;28;20072;-68
2022/05/30 06:26:17;;;;;;;5.00;2.20;;;;;;;;;;5054878;28;20033;-68
2022/05/30 06:28:43;;;;;;;5.30;2.55;;;;;;;;;;5055115;28;20021;-68
2022/05/30 06:31:12;;;;;;;4.78;2.25;;;;;;;;;;5054727;28;20032;-68
2022/05/30 06:33:38;;;;;;;3.85;2.10;;;;;;;;;;5054967;28;20029;-69
2022/05/30 06:36:07;;;;;;;3.25;2.05;;;;;;;;;;5054934;28;20382;-69
2022/05/30 06:38:32;;;;;;;3.03;1.30;;;;;;;;;;5054654;28;20033;-69
2022/05/30 06:41:08;;;;;;;7.18;1.52;;;;;;;;;;5054763;28;20394;-68
2022/05/30 06:43:34;;;;;;;3.70;1.50;;;;;;;;;;5054794;28;20025;-66
2022/05/30 06:46:02;;;;;;;6.18;1.75;;;;;;;;;;5054408;28;20116;-67
2022/05/30 06:48:27;;;;;;;5.55;1.92;;;;;;;;;;5054539;28;20095;-69
2022/05/30 06:50:53;;;;;;;6.95;1.77;;;;;;;;;;5054364;28;20025;-67
2022/05/30 06:53:19;;;;;;;10.35;1.90;;;;;;;;;;5053866;28;20459;-66
2022/05/30 06:55:49;;;;;;;4.70;1.70;;;;;;;;;;5054128;28;20072;-66
2022/05/30 06:58:16;;;;;;;3.53;1.67;;;;;;;;;;5044461;28;20068;-66
2022/05/30 07:00:44;;;;;;;4.50;1.70;;;;;;;;;;5051045;28;20092;-67
2022/05/30 07:03:12;;;;;;;4.32;1.80;;;;;;;;;;5053708;28;20108;-66
2022/05/30 07:05:38;;;;;;;4.95;2.30;;;;;;;;;;5054050;28;20437;-66
2022/05/30 07:08:04;;;;;;;3.53;1.65;;;;;;;;;;5053974;28;20021;-67
2022/05/30 07:10:30;;;;;;;3.95;1.75;;;;;;;;;;5054153;28;20058;-69
2022/05/30 07:12:57;;;;;;;4.05;1.50;;;;;;;;;;5053875;28;20036;-67
2022/05/30 07:15:23;;;;;;;3.50;1.80;;;;;;;;;;5053829;28;20048;-67
2022/05/30 07:17:49;;;;;;;4.22;2.17;;;;;;;;;;5053567;28;20016;-68
2022/05/30 07:20:14;;;;;;;6.60;1.80;;;;;;;;;;5053538;28;20462;-67
2022/05/30 07:22:40;;;;;;;7.93;2.53;;;;;;;;;;5053427;28;20044;-69
2022/05/30 07:25:07;;;;;;;6.38;2.30;;;;;;;;;;5053399;28;20036;-69
2022/05/30 07:27:33;;;;;;;4.07;2.35;;;;;;;;;;5053364;28;20159;-67
2022/05/30 07:29:58;;;;;;;5.15;1.92;;;;;;;;;;5053413;28;20052;-66
2022/05/30 07:32:24;;;;;;;3.53;1.83;;;;;;;;;;5052862;28;20029;-68
2022/05/30 07:34:49;;;;;;;7.13;2.03;;;;;;;;;;5053418;28;20032;-67
2022/05/30 07:37:15;;;;;;;4.05;1.50;;;;;;;;;;5053024;28;20060;-67
2022/05/30 07:39:40;;;;;;;3.67;1.83;;;;;;;;;;5053170;28;20029;-66
2022/05/30 07:42:06;;;;;;;3.92;2.15;;;;;;;;;;5053303;28;20365;-69
2022/05/30 07:44:33;;;;;;;4.20;1.80;;;;;;;;;;5053151;28;20066;-67
2022/05/30 07:46:59;;;;;;;4.38;2.00;;;;;;;;;;5052805;28;20143;-67
2022/05/30 07:49:25;;;;;;;4.35;1.90;;;;;;;;;;5052784;28;20174;-67
2022/05/30 07:51:50;;;;;;;3.70;1.90;;;;;;;;;;5052892;28;20025;-67
2022/05/30 07:54:16;;;;;;;3.90;1.80;;;;;;;;;;5052872;28;20025;-67
2022/05/30 07:56:42;;;;;;;3.92;1.70;;;;;;;;;;5053139;28;20040;-67
2022/05/30 07:59:07;;;;;;;4.25;1.60;;;;;;;;;;5051682;28;20025;-68
2022/05/30 08:01:34;;;;;;;2.03;1.45;;;;;;;;;;5052838;28;20036;-66
2022/05/30 08:04:00;;;;;;;3.88;1.63;;;;;;;;;;5053025;28;20036;-67
2022/05/30 08:06:29;;;;;;;2.55;1.30;;;;;;;;;;5052920;28;20151;-67
2022/05/30 08:08:55;;;;;;;3.67;1.52;;;;;;;;;;5052782;28;20032;-67
2022/05/30 08:11:21;;;;;;;4.47;1.55;;;;;;;;;;5052659;28;20039;-67
2022/05/30 08:13:47;;;;;;;4.97;1.40;;;;;;;;;;5052842;28;20029;-66
2022/05/30 08:16:19;;;;;;;4.88;1.42;;;;;;;;;;5052573;28;20420;-67
2022/05/30 08:18:44;;;;;;;5.03;1.27;;;;;;;;;;5052472;28;20017;-67
2022/05/30 08:21:10;;;;;;;1.63;0.95;;;;;;;;;;5052534;28;20056;-67
2022/05/30 08:23:36;;;;;;;3.78;1.20;;;;;;;;;;5052319;28;20041;-67
2022/05/30 08:26:02;;;;;;;2.17;1.38;;;;;;;;;;5052360;28;20067;-66
2022/05/30 08:28:28;;;;;;;3.95;1.48;;;;;;;;;;5052530;28;20036;-68
2022/05/30 08:30:53;;;;;;;2.83;1.30;;;;;;;;;;5052199;28;20017;-66
2022/05/30 08:33:20;;;;;;;3.33;1.40;;;;;;;;;;5052390;28;20033;-67
2022/05/30 08:35:47;;;;;;;4.60;2.13;;;;;;;;;;5052354;28;20021;-67
2022/05/30 08:38:14;;;;;;;4.20;1.35;;;;;;;;;;5052571;28;20052;-64
2022/05/30 08:43:29;;;;;;;4.03;1.30;;;;;;;;;;5051877;28;20429;-65
2022/05/30 08:46:10;;;;;;;3.13;1.77;;;;;;;;;;5052139;28;20036;-65
2022/05/30 08:48:46;;;;;;;3.92;1.65;;;;;;;;;;5051975;28;20029;-66
2022/05/30 08:51:38;;;;;;;4.28;1.80;;;;;;;;;;5052236;28;20032;-67
2022/05/30 08:54:30;;;;;;;4.68;1.70;;;;;;;;;;5052145;28;20105;-66
2022/05/30 08:56:58;;;;;;;2.85;1.30;;;;;;;;;;5052369;28;20079;-66
2022/05/30 08:59:29;;;;;;;6.70;2.17;;;;;;;;;;5051961;28;20037;-66
2022/05/30 09:02:01;;;;;;;2.03;1.20;;;;;;;;;;5052111;28;20025;-67
2022/05/30 09:04:34;;;;;;;6.78;1.50;;;;;;;;;;5052234;28;20059;-67
2022/05/30 09:07:05;;;;;;;3.28;1.15;;;;;;;;;;5051891;28;20078;-65
2022/05/30 09:09:40;;;;;;;3.17;1.20;;;;;;;;;;5052104;28;20033;-67
2022/05/30 09:12:22;;;;;;;2.83;1.70;;;;;;;;;;5052054;28;20036;-65
2022/05/30 09:15:19;;;;;;;2.45;1.10;;;;;;;;;;5052117;28;20029;-66
2022/05/30 09:18:17;;;;;;;6.40;1.45;;;;;;;;;;5046539;28;20073;-67
2022/05/30 09:20:42;;;;;;;6.80;1.63;;;;;;;;;;5026908;28;20107;-67
2022/05/30 09:23:10;;;;;;;2.60;1.20;;;;;;;;;;5031965;28;20042;-68
2022/05/30 09:26:01;;;;;;;3.88;1.50;;;;;;;;;;5032135;28;20084;-68
2022/05/30 09:28:39;;;;;;;;;;;;;;;;;;5032528;28;20224;-67
2022/05/30 09:31:15;;;;;;;3.35;1.38;;;;;;;;;;5032155;28;20385;-68
2022/05/30 09:33:44;;;;;;;2.90;1.40;;;;;;;;;;5032040;28;20030;-68
2022/05/30 09:36:14;;;;;;;5.03;1.65;;;;;;;;;;5032170;28;20033;-68
2022/05/30 09:39:01;;;;;;;3.92;1.60;;;;;;;;;;5031990;28;20108;-67
2022/05/30 09:41:39;;;;;;;9.10;1.42;;;;;;;;;;5031622;28;20487;-67
2022/05/30 09:44:20;;;;;;;3.78;1.60;;;;;;;;;;5031768;28;20029;-67
2022/05/30 09:46:56;;;;;;;2.85;1.30;;;;;;;;;;5032099;28;20105;-68
2022/05/30 09:49:38;;;;;;;7.63;1.30;;;;;;;;;;5031713;28;20030;-64
2022/05/30 09:52:29;;;;;;;4.03;1.42;;;;;;;;;;5032046;28;20021;-65
2022/05/30 09:54:55;;;;;;;2.63;1.10;;;;;;;;;;5033446;28;20079;-68
2022/05/30 09:57:27;;;;;;;3.42;1.40;;;;;;;;;;5036070;28;20489;-64
2022/05/30 09:59:56;;;;;;;3.78;1.50;;;;;;;;;;5055116;28;20033;-64
2022/05/30 10:02:22;;;;;;;3.63;1.30;;;;;;;;;;5055305;28;20032;-64
2022/05/30 10:04:54;;;;;;;3.30;1.25;;;;;;;;;;5055012;28;20033;-64
2022/05/30 10:07:20;;;;;;;4.22;1.70;;;;;;;;;;5052670;28;20029;-63
2022/05/30 10:09:54;;;;;;;3.50;1.25;;;;;;;;;;5054749;28;20039;-64
2022/05/30 10:12:53;;;;;;;3.08;1.60;;;;;;;;;;5054141;28;20025;-64
2022/05/30 10:15:38;;;;;;;2.58;1.45;;;;;;;;;;5053918;28;20024;-64
2022/05/30 10:18:13;;;;;;;2.40;1.33;;;;;;;;;;5054196;28;20025;-64
2022/05/30 10:20:48;;;;;;;3.13;1.50;;;;;;;;;;5059682;28;20032;-64
2022/05/30 10:29:27;;;;;;;2.83;1.20;;;;;;;;;;5053875;28;20032;-65
2022/05/30 10:31:55;;;;;;;5.13;1.50;;;;;;;;;;5054036;28;20029;-64
2022/05/30 10:34:34;;;;;;;2.58;1.23;;;;;;;;;;5054718;28;20327;-65
2022/05/30 10:37:52;;;;;;;2.87;1.27;;;;;;;;;;5053335;28;20039;-64
2022/05/30 10:40:23;;;;;;;3.17;1.50;;;;;;;;;;5047272;28;20037;-65
2022/05/30 10:42:57;;;;;;;3.33;1.35;;;;;;;;;;5015612;28;20080;-64
2022/05/30 10:45:38;;;;;;;5.70;1.55;;;;;;;;;;5032199;28;20039;-64
2022/05/30 10:48:06;;;;;;;3.30;1.20;;;;;;;;;;5032242;28;20044;-63
2022/05/30 10:50:52;;;;;;;8.57;1.65;;;;;;;;;;5032045;28;20050;-66
2022/05/30 10:53:28;;;;;;;3.35;1.20;;;;;;;;;;5032110;28;20033;-64
2022/05/30 10:55:57;;;;;;;6.32;1.52;;;;;;;;;;5031877;28;20092;-64
2022/05/30 10:58:32;;;;;;;3.67;1.40;;;;;;;;;;5031773;28;20034;-64
2022/05/30 11:01:06;;;;;;;3.47;1.20;;;;;;;;;;5032099;28;20030;-66
2022/05/30 11:04:07;;;;;;;4.18;1.50;;;;;;;;;;5031786;28;20107;-65
2022/05/30 11:06:40;;;;;;;7.80;1.58;;;;;;;;;;4971993;28;20042;-62
2022/05/30 11:09:20;;;;;;;8.88;1.80;;;;;;;;;;4958144;28;20059;-66
2022/05/30 11:11:48;;;;;;;2.80;1.25;;;;;;;;;;4951577;29;20126;-65
2022/05/30 11:14:44;;;;;;;2.35;1.20;;;;;;;;;;4952519;29;20474;-64
2022/05/30 11:17:37;;;;;;;5.00;1.60;;;;;;;;;;4978205;28;20069;-64
2022/05/30 11:20:18;;;;;;;2.50;1.20;;;;;;;;;;4990878;28;20049;-65
2022/05/30 11:22:49;;;;;;;3.85;1.40;;;;;;;;;;4992094;28;20127;-64
2022/05/30 11:25:39;;;;;;;5.35;1.98;;;;;;;;;;4991680;28;20064;-64
2022/05/30 11:28:17;;;;;;;3.55;1.40;;;;;;;;;;4968765;28;20038;-64
2022/05/30 11:31:20;;;;;;;3.42;1.05;;;;;;;;;;4972469;28;20054;-63
2022/05/30 11:34:05;;;;;;;8.32;1.40;;;;;;;;;;4975442;28;20037;-65
2022/05/30 11:36:36;;;;;;;3.33;1.23;;;;;;;;;;4976703;28;20454;-64
2022/05/30 11:39:33;;;;;;;3.50;1.45;;;;;;;;;;4972471;28;20042;-65
2022/05/30 11:42:13;;;;;;;2.50;1.20;;;;;;;;;;4981706;28;20115;-65
2022/05/30 11:44:41;;;;;;;2.70;1.20;;;;;;;;;;5033513;28;20033;-63
2022/05/30 11:47:18;;;;;;;3.13;1.48;;;;;;;;;;5033346;28;20031;-63
2022/05/30 11:50:18;;;;;;;1.98;0.90;;;;;;;;;;5033025;28;20021;-64
2022/05/30 11:53:14;;;;;;;3.20;1.10;;;;;;;;;;5032998;28;20038;-65
2022/05/30 11:56:15;;;;;;;3.42;1.10;;;;;;;;;;5033270;28;20032;-66
2022/05/30 11:59:23;;;;;;;1.48;0.90;;;;;;;;;;5033131;28;20044;-66
2022/05/30 12:01:53;;;;;;;2.80;0.88;;;;;;;;;;5064918;28;20064;-64
2022/05/30 12:05:00;;;;;;;1.92;0.80;;;;;;;;;;5033068;28;20096;-65
2022/05/30 12:08:14;;;;;;;1.40;0.73;;;;;;;;;;5034713;28;20052;-65
2022/05/30 12:10:47;;;;;;;3.05;0.80;;;;;;;;;;5032227;28;20033;-63
2022/05/30 12:13:52;;;;;;;3.38;1.20;;;;;;;;;;5032147;28;20536;-63
2022/05/30 12:16:24;;;;;;;4.07;1.13;;;;;;;;;;5032880;28;20053;-64
2022/05/30 12:24:37;;;;;;;2.67;0.90;;;;;;;;;;5051761;28;20547;-65
2022/05/30 12:27:08;;;;;;;3.60;0.90;;;;;;;;;;5052367;28;20063;-65
2022/05/30 12:29:39;;;;;;;2.70;0.95;;;;;;;;;;5052448;28;20037;-63
2022/05/30 12:32:45;;;;;;;1.48;0.68;;;;;;;;;;5051513;28;20040;-63
2022/05/30 12:35:26;;;;;;;3.05;0.80;;;;;;;;;;5041137;28;20037;-64
2022/05/30 12:37:58;;;;;;;1.60;0.70;;;;;;;;;;5032239;28;20033;-63
2022/05/30 12:40:26;;;;;;;1.27;0.65;;;;;;;;;;5032260;28;20033;-63
2022/05/30 12:43:02;;;;;;;3.60;0.70;;;;;;;;;;5032516;28;20025;-64
2022/05/30 12:45:33;;;;;;;3.72;0.90;;;;;;;;;;5032270;28;20041;-65
2022/05/30 12:48:01;;;;;;;5.35;1.10;;;;;;;;;;5032345;28;20466;-66
2022/05/30 12:50:30;;;;;;;2.75;1.10;;;;;;;;;;5032347;28;20056;-65
2022/05/30 12:53:02;;;;;;;2.38;0.80;;;;;;;;;;5032056;28;20036;-64
2022/05/30 12:55:41;;;;;;;1.75;0.70;;;;;;;;;;5032108;28;20029;-66
2022/05/30 12:58:10;;;;;;;1.08;0.63;;;;;;;;;;5032398;28;20122;-65
2022/05/30 13:00:35;;;;;;;3.67;0.82;;;;;;;;;;5043554;28;20017;-66
2022/05/30 13:03:10;;;;;;;2.45;0.98;;;;;;;;;;5032311;28;20491;-66
2022/05/30 13:05:41;;;;;;;1.52;0.60;;;;;;;;;;5032340;28;20061;-65
2022/05/30 13:08:44;;;;;;;2.63;0.80;;;;;;;;;;5032187;28;20051;-66
2022/05/30 13:11:12;;;;;;;2.03;0.60;;;;;;;;;;5032096;28;20425;-66
2022/05/30 13:13:41;;;;;;;1.33;0.63;;;;;;;;;;5033272;28;20103;-66
2022/05/30 13:16:23;;;;;;;1.40;0.70;;;;;;;;;;5041860;28;20035;-69
2022/05/30 13:18:48;;;;;;;1.13;0.57;;;;;;;;;;5047603;28;20340;-64
2022/05/30 13:21:18;;;;;;;1.35;0.63;;;;;;;;;;5049418;28;20112;-65
2022/05/30 13:23:43;;;;;;;2.13;1.27;;;;;;;;;;5031945;28;20364;-66
2022/05/30 13:26:17;;;;;;;2.03;0.88;;;;;;;;;;5032175;28;20026;-67
2022/05/30 13:28:43;;;;;;;1.50;0.77;;;;;;;;;;5031354;28;20037;-66
2022/05/30 13:31:12;;;;;;;1.60;0.80;;;;;;;;;;5035125;28;20032;-66
2022/05/30 13:33:47;;;;;;;3.65;0.75;;;;;;;;;;5035448;28;20490;-66
2022/05/30 13:36:23;;;;;;;2.47;1.02;;;;;;;;;;5035447;28;20104;-66
2022/05/30 13:38:52;;;;;;;1.77;0.68;;;;;;;;;;5035814;28;20420;-66
2022/05/30 13:41:37;;;;;;;0.80;0.70;;;;;;;;;;5035750;28;20056;-66
2022/05/30 13:44:07;;;;;;;1.95;0.90;;;;;;;;;;5034733;28;20068;-66
2022/05/30 13:46:38;;;;;;;1.88;0.70;;;;;;;;;;5034695;28;20029;-67
2022/05/30 13:49:03;;;;;;;;;;;;;;;;;;5034356;28;20433;-67
2022/05/30 13:51:35;;;;;;;1.05;0.50;;;;;;;;;;5034957;28;19909;-66
2022/05/30 13:54:02;;;;;;;2.97;0.80;;;;;;;;;;5035284;28;20025;-66
2022/05/30 13:56:36;;;;;;;0.70;0.45;;;;;;;;;;5035268;28;20025;-64
2022/05/30 13:59:06;;;;;;;1.10;0.40;;;;;;;;;;5035526;28;20056;-67
2022/05/30 14:01:38;;;;;;;1.88;0.63;;;;;;;;;;5035408;28;20462;-66
2022/05/30 14:04:27;;;;;;;1.90;0.60;;;;;;;;;;5035221;28;20098;-70
2022/05/30 14:06:52;;;;;;;2.85;0.50;;;;;;;;;;5035623;28;20041;-66
2022/05/30 14:09:20;;;;;;;1.50;0.80;;;;;;;;;;5034916;28;20387;-67
2022/05/30 14:11:52;;;;;;;1.10;0.55;;;;;;;;;;5035446;28;20448;-64
2022/05/30 14:14:41;;;;;;;1.98;0.70;;;;;;;;;;5035396;28;20426;-66
2022/05/30 14:17:08;;;;;;;1.17;0.65;;;;;;;;;;5035317;28;20018;-67
2022/05/30 14:19:37;;;;;;;3.70;1.00;;;;;;;;;;5048198;28;20387;-66
2022/05/30 14:22:22;;;;;;;2.58;1.05;;;;;;;;;;5054791;28;20049;-67
2022/05/30 14:25:03;;;;;;;3.17;0.60;;;;;;;;;;5054761;28;20082;-67
2022/05/30 14:27:34;;;;;;;3.38;0.80;;;;;;;;;;5054929;28;20082;-67
2022/05/30 14:30:02;;;;;;;1.20;0.77;;;;;;;;;;5055021;28;20070;-67
2022/05/30 14:32:37;;;;;;;1.10;0.50;;;;;;;;;;5054963;28;20067;-67
2022/05/30 14:35:07;;;;;;;8.85;3.08;;;;;;;;;;5054553;28;20339;-68
2022/05/30 14:37:38;;;;;;;6.55;2.38;;;;;;;;;;5054796;28;20025;-67
2022/05/30 14:40:12;;;;;;;2.65;0.60;;;;;;;;;;5054809;28;20409;-66
2022/05/30 14:42:48;;;;;;;1.33;0.60;;;;;;;;;;5053729;28;20151;-66
2022/05/30 14:45:39;;;;;;;1.55;0.65;;;;;;;;;;5054498;28;20056;-66
2022/05/30 14:48:08;;;;;;;2.13;0.93;;;;;;;;;;5054667;28;20028;-67
2022/05/30 14:50:47;;;;;;;1.10;0.98;;;;;;;;;;5054437;28;20021;-66
2022/05/30 14:53:16;;;;;;;1.83;0.70;;;;;;;;;;5054660;28;20474;-67
2022/05/30 14:55:42;;;;;;;2.58;0.65;;;;;;;;;;5054528;28;20087;-67
2022/05/30 14:58:15;;;;;;;1.77;0.90;;;;;;;;;;5054497;28;20025;-67
2022/05/30 15:01:03;;;;;;;1.33;0.70;;;;;;;;;;5054316;28;20072;-67
2022/05/30 15:06:21;;;;;;;1.33;0.70;;;;;;;;;;5054432;28;20124;-67
2022/05/30 15:08:47;;;;;;;1.25;0.70;;;;;;;;;;5054291;28;20025;-67
2022/05/30 15:11:19;;;;;;;1.63;0.70;;;;;;;;;;5054487;28;20426;-67
2022/05/30 15:13:49;;;;;;;3.15;0.93;;;;;;;;;;5054082;28;20108;-67
2022/05/30 15:16:16;;;;;;;5.22;1.23;;;;;;;;;;5054175;28;20040;-66
2022/05/30 15:18:43;;;;;;;1.00;0.73;;;;;;;;;;5053858;28;20033;-67
2022/05/30 15:21:12;;;;;;;0.85;0.73;;;;;;;;;;5054064;28;20033;-65
2022/05/30 15:23:37;;;;;;;4.15;1.90;;;;;;;;;;5053981;28;20402;-64
2022/05/30 15:26:03;;;;;;;2.88;1.50;;;;;;;;;;5055554;28;20040;-64
2022/05/30 15:28:28;;;;;;;1.70;0.73;;;;;;;;;;5053283;28;20013;-64
2022/05/30 15:30:54;;;;;;;2.10;0.70;;;;;;;;;;5052963;28;20064;-67
2022/05/30 15:33:19;;;;;;;2.95;0.80;;;;;;;;;;5053230;28;20028;-66